createdAt,value
2019-02-16T00:00:23.123Z,0.00
2019-02-16T00:01:23.122Z,0.00
2019-02-16T00:02:23.103Z,0.00
2019-02-16T00:03:23.108Z,0.00
2019-02-16T00:04:23.088Z,0.00
2019-02-16T00:05:23.079Z,0.00
2019-02-16T00:06:23.091Z,0.00
2019-02-16T00:07:23.100Z,0.00
2019-02-16T00:08:23.060Z,0.00
2019-02-16T00:09:23.044Z,0.00
2019-02-16T00:10:23.038Z,0.00
2019-02-16T00:11:23.027Z,0.00
2019-02-16T00:12:23.019Z,0.00
2019-02-16T00:13:23.012Z,0.00
2019-02-16T00:14:23.027Z,0.00
2019-02-16T00:15:22.999Z,0.00
2019-02-16T00:16:23.013Z,0.00
2019-02-16T00:17:22.993Z,0.00
2019-02-16T00:18:23.147Z,0.00
2019-02-16T00:19:22.962Z,0.00
2019-02-16T00:20:22.955Z,0.00
2019-02-16T00:21:22.991Z,0.00
2019-02-16T00:22:22.935Z,0.00
2019-02-16T00:23:22.926Z,0.00
2019-02-16T00:24:22.917Z,0.00
2019-02-16T00:25:22.910Z,0.00
2019-02-16T00:26:22.903Z,0.00
2019-02-16T00:27:22.896Z,0.00
2019-02-16T00:28:22.883Z,0.00
2019-02-16T00:29:22.877Z,0.00
2019-02-16T00:30:22.865Z,0.00
2019-02-16T00:31:22.859Z,0.00
2019-02-16T00:32:22.848Z,0.00
2019-02-16T00:33:22.840Z,0.00
2019-02-16T00:34:22.831Z,0.00
2019-02-16T00:35:22.824Z,0.00
2019-02-16T00:36:22.813Z,0.00
2019-02-16T00:37:22.808Z,0.00
2019-02-16T00:38:22.796Z,0.00
2019-02-16T00:39:22.787Z,0.00
2019-02-16T00:40:22.781Z,0.00
2019-02-16T00:41:22.773Z,0.00
2019-02-16T00:42:22.762Z,0.00
2019-02-16T00:43:22.749Z,0.00
2019-02-16T00:44:22.744Z,0.00
2019-02-16T00:45:22.733Z,0.00
2019-02-16T00:46:22.725Z,0.00
2019-02-16T00:47:22.721Z,0.00
2019-02-16T00:48:22.708Z,0.00
2019-02-16T00:49:22.698Z,0.00
2019-02-16T00:50:22.691Z,0.00
2019-02-16T00:51:22.683Z,0.00
2019-02-16T00:52:22.672Z,0.00
2019-02-16T00:53:22.664Z,0.00
2019-02-16T00:54:22.654Z,0.00
2019-02-16T00:55:22.645Z,0.00
2019-02-16T00:56:22.639Z,0.00
2019-02-16T00:57:22.625Z,0.00
2019-02-16T00:58:22.617Z,0.00
2019-02-16T00:59:22.610Z,0.00
2019-02-16T01:00:22.598Z,0.00
2019-02-16T01:01:22.592Z,0.00
2019-02-16T01:02:22.581Z,0.00
2019-02-16T01:03:22.573Z,0.00
2019-02-16T01:04:22.565Z,0.00
2019-02-16T01:05:22.552Z,0.00
2019-02-16T01:06:22.546Z,0.00
2019-02-16T01:07:22.533Z,0.00
2019-02-16T01:08:22.529Z,0.00
2019-02-16T01:09:22.517Z,0.00
2019-02-16T01:10:22.509Z,0.00
2019-02-16T01:11:22.496Z,0.00
2019-02-16T01:12:22.486Z,0.00
2019-02-16T01:13:22.480Z,0.00
2019-02-16T01:14:22.471Z,0.00
2019-02-16T01:15:22.461Z,0.00
2019-02-16T01:16:22.449Z,0.00
2019-02-16T01:17:22.442Z,0.00
2019-02-16T01:18:22.430Z,0.00
2019-02-16T01:19:22.428Z,0.00
2019-02-16T01:20:22.414Z,0.00
2019-02-16T01:21:23.176Z,0.00
2019-02-16T01:22:22.399Z,0.00
2019-02-16T01:23:22.387Z,0.00
2019-02-16T01:24:22.378Z,0.00
2019-02-16T01:25:22.368Z,0.00
2019-02-16T01:26:22.363Z,0.00
2019-02-16T01:27:22.352Z,0.00
2019-02-16T01:28:22.345Z,0.00
2019-02-16T01:29:22.333Z,0.00
2019-02-16T01:30:22.322Z,0.00
2019-02-16T01:31:22.317Z,0.00
2019-02-16T01:32:22.307Z,0.00
2019-02-16T01:33:22.297Z,0.00
2019-02-16T01:34:22.291Z,0.00
2019-02-16T01:35:22.276Z,0.00
2019-02-16T01:36:22.268Z,0.00
2019-02-16T01:37:22.258Z,0.00
2019-02-16T01:38:22.253Z,0.00
2019-02-16T01:39:22.240Z,0.00
2019-02-16T01:40:22.233Z,0.00
2019-02-16T01:41:22.226Z,0.00
2019-02-16T01:42:22.213Z,0.00
2019-02-16T01:43:22.204Z,0.00
2019-02-16T01:44:22.198Z,0.00
2019-02-16T01:45:22.187Z,0.00
2019-02-16T01:46:22.179Z,0.00
2019-02-16T01:47:22.167Z,0.00
2019-02-16T01:48:22.159Z,0.00
2019-02-16T01:49:22.150Z,0.00
2019-02-16T01:50:22.144Z,0.00
2019-02-16T01:51:22.135Z,0.00
2019-02-16T01:52:22.121Z,0.00
2019-02-16T01:53:22.116Z,0.00
2019-02-16T01:54:22.109Z,0.00
2019-02-16T01:55:22.095Z,0.00
2019-02-16T01:56:22.082Z,0.00
2019-02-16T01:57:22.075Z,0.00
2019-02-16T01:58:22.126Z,0.00
2019-02-16T01:59:22.060Z,0.00
2019-02-16T02:00:22.046Z,0.00
2019-02-16T02:01:22.043Z,0.00
2019-02-16T02:02:22.029Z,0.00
2019-02-16T02:03:22.019Z,0.00
2019-02-16T02:04:22.012Z,0.00
2019-02-16T02:05:22.001Z,0.00
2019-02-16T02:06:21.990Z,0.00
2019-02-16T02:07:21.980Z,0.00
2019-02-16T02:08:21.974Z,0.00
2019-02-16T02:09:21.966Z,0.00
2019-02-16T02:10:21.955Z,0.00
2019-02-16T02:11:21.945Z,0.00
2019-02-16T02:12:21.938Z,0.00
2019-02-16T02:13:21.930Z,0.00
2019-02-16T02:14:21.923Z,0.00
2019-02-16T02:15:21.911Z,0.00
2019-02-16T02:16:21.899Z,0.00
2019-02-16T02:17:21.890Z,0.00
2019-02-16T02:18:21.879Z,0.00
2019-02-16T02:19:21.869Z,0.00
2019-02-16T02:20:21.861Z,0.00
2019-02-16T02:21:21.910Z,0.00
2019-02-16T02:22:21.842Z,0.00
2019-02-16T02:23:21.831Z,0.00
2019-02-16T02:24:21.822Z,0.00
2019-02-16T02:25:21.821Z,0.00
2019-02-16T02:26:21.804Z,0.00
2019-02-16T02:27:21.796Z,0.00
2019-02-16T02:28:21.782Z,0.00
2019-02-16T02:29:21.776Z,0.00
2019-02-16T02:30:21.767Z,0.00
2019-02-16T02:31:21.755Z,0.00
2019-02-16T02:32:21.747Z,0.00
2019-02-16T02:33:21.738Z,0.00
2019-02-16T02:34:21.726Z,0.00
2019-02-16T02:35:21.716Z,0.00
2019-02-16T02:36:21.705Z,0.00
2019-02-16T02:37:21.697Z,0.00
2019-02-16T02:38:21.689Z,0.00
2019-02-16T02:39:21.679Z,0.00
2019-02-16T02:40:21.672Z,0.00
2019-02-16T02:41:21.663Z,0.00
2019-02-16T02:42:21.654Z,0.00
2019-02-16T02:43:21.639Z,0.00
2019-02-16T02:44:21.632Z,0.00
2019-02-16T02:45:21.627Z,0.00
2019-02-16T02:46:21.614Z,0.00
2019-02-16T02:47:21.605Z,0.00
2019-02-16T02:48:21.596Z,0.00
2019-02-16T02:49:21.583Z,0.00
2019-02-16T02:50:21.684Z,0.00
2019-02-16T02:51:21.563Z,0.00
2019-02-16T02:52:21.552Z,0.00
2019-02-16T02:53:30.766Z,0.00
2019-02-16T02:54:21.535Z,0.00
2019-02-16T02:55:21.525Z,0.00
2019-02-16T02:56:21.517Z,0.00
2019-02-16T02:57:21.514Z,0.00
2019-02-16T02:58:21.495Z,0.00
2019-02-16T02:59:21.485Z,0.00
2019-02-16T03:00:21.484Z,0.00
2019-02-16T03:01:21.465Z,0.00
2019-02-16T03:02:21.457Z,0.00
2019-02-16T03:03:21.448Z,0.00
2019-02-16T03:04:21.440Z,0.00
2019-02-16T03:05:21.428Z,0.00
2019-02-16T03:06:21.422Z,0.00
2019-02-16T03:07:21.408Z,0.00
2019-02-16T03:08:21.398Z,0.00
2019-02-16T03:09:21.396Z,0.00
2019-02-16T03:10:21.380Z,0.00
2019-02-16T03:11:21.372Z,0.00
2019-02-16T03:12:21.362Z,0.00
2019-02-16T03:13:21.356Z,0.00
2019-02-16T03:14:21.340Z,0.00
2019-02-16T03:15:21.366Z,0.00
2019-02-16T03:16:21.323Z,0.00
2019-02-16T03:17:21.313Z,0.00
2019-02-16T03:18:21.302Z,0.00
2019-02-16T03:19:21.292Z,0.00
2019-02-16T03:20:21.294Z,0.00
2019-02-16T03:21:21.277Z,0.00
2019-02-16T03:22:21.266Z,0.00
2019-02-16T03:23:21.255Z,0.00
2019-02-16T03:24:21.243Z,0.00
2019-02-16T03:25:21.244Z,0.00
2019-02-16T03:26:21.227Z,0.00
2019-02-16T03:27:21.221Z,0.00
2019-02-16T03:28:21.205Z,0.00
2019-02-16T03:29:21.198Z,0.00
2019-02-16T03:30:21.189Z,0.00
2019-02-16T03:31:21.178Z,0.00
2019-02-16T03:32:21.166Z,0.00
2019-02-16T03:33:21.163Z,0.00
2019-02-16T03:34:21.157Z,0.00
2019-02-16T03:35:21.136Z,0.00
2019-02-16T03:36:21.172Z,0.00
2019-02-16T03:37:21.124Z,0.00
2019-02-16T03:38:21.112Z,0.00
2019-02-16T03:39:21.099Z,0.00
2019-02-16T03:40:21.096Z,0.00
2019-02-16T03:41:21.082Z,0.00
2019-02-16T03:42:21.079Z,0.00
2019-02-16T03:43:21.062Z,0.00
2019-02-16T03:44:21.047Z,0.00
2019-02-16T03:45:21.040Z,0.00
2019-02-16T03:46:21.031Z,0.00
2019-02-16T03:47:21.020Z,0.00
2019-02-16T03:48:21.007Z,0.00
2019-02-16T03:49:21.000Z,0.00
2019-02-16T03:50:20.992Z,0.00
2019-02-16T03:51:20.982Z,0.00
2019-02-16T03:52:20.971Z,0.00
2019-02-16T03:53:20.964Z,0.00
2019-02-16T03:54:20.954Z,0.00
2019-02-16T03:55:20.936Z,0.00
2019-02-16T03:56:20.934Z,0.00
2019-02-16T03:57:20.935Z,0.00
2019-02-16T03:58:20.911Z,0.00
2019-02-16T03:59:20.903Z,0.00
2019-02-16T04:00:20.893Z,0.00
2019-02-16T04:01:20.883Z,0.00
2019-02-16T04:02:20.874Z,0.00
2019-02-16T04:03:20.863Z,0.00
2019-02-16T04:04:20.853Z,0.00
2019-02-16T04:05:20.844Z,0.00
2019-02-16T04:06:20.834Z,0.00
2019-02-16T04:07:20.823Z,0.00
2019-02-16T04:08:20.815Z,0.00
2019-02-16T04:09:20.809Z,0.00
2019-02-16T04:10:20.795Z,0.00
2019-02-16T04:11:20.786Z,0.00
2019-02-16T04:12:20.775Z,0.00
2019-02-16T04:13:20.764Z,0.00
2019-02-16T04:14:20.754Z,0.00
2019-02-16T04:15:20.746Z,0.00
2019-02-16T04:16:20.740Z,0.00
2019-02-16T04:17:20.729Z,0.00
2019-02-16T04:18:20.714Z,0.00
2019-02-16T04:19:20.702Z,0.00
2019-02-16T04:20:20.691Z,0.00
2019-02-16T04:21:20.687Z,0.00
2019-02-16T04:22:24.746Z,0.00
2019-02-16T04:23:20.664Z,0.00
2019-02-16T04:24:20.660Z,0.00
2019-02-16T04:25:20.643Z,0.00
2019-02-16T04:26:20.639Z,0.00
2019-02-16T04:27:20.625Z,0.00
2019-02-16T04:28:20.612Z,0.00
2019-02-16T04:29:20.607Z,0.00
2019-02-16T04:30:20.595Z,0.00
2019-02-16T04:31:20.585Z,0.00
2019-02-16T04:32:20.581Z,0.00
2019-02-16T04:33:20.562Z,0.00
2019-02-16T04:34:20.555Z,0.00
2019-02-16T04:35:20.542Z,0.00
2019-02-16T04:36:20.532Z,0.00
2019-02-16T04:37:20.522Z,0.00
2019-02-16T04:38:20.516Z,0.00
2019-02-16T04:39:20.506Z,0.00
2019-02-16T04:40:20.495Z,0.00
2019-02-16T04:41:20.487Z,0.00
2019-02-16T04:42:20.472Z,0.00
2019-02-16T04:43:20.463Z,0.00
2019-02-16T04:44:20.453Z,0.00
2019-02-16T04:45:20.442Z,0.00
2019-02-16T04:46:20.431Z,0.00
2019-02-16T04:47:20.420Z,0.00
2019-02-16T04:48:20.413Z,0.00
2019-02-16T04:49:20.404Z,0.00
2019-02-16T04:50:20.391Z,0.00
2019-02-16T04:51:20.402Z,0.00
2019-02-16T04:52:20.371Z,0.00
2019-02-16T04:53:20.360Z,0.00
2019-02-16T04:54:20.352Z,0.00
2019-02-16T04:55:20.341Z,0.00
2019-02-16T04:56:20.331Z,0.00
2019-02-16T04:57:20.328Z,0.00
2019-02-16T04:58:20.317Z,0.00
2019-02-16T04:59:20.302Z,0.00
2019-02-16T05:00:20.296Z,0.00
2019-02-16T05:01:20.280Z,0.00
2019-02-16T05:02:20.285Z,0.00
2019-02-16T05:03:20.259Z,0.00
2019-02-16T05:04:20.251Z,0.00
2019-02-16T05:05:20.237Z,0.00
2019-02-16T05:06:20.228Z,0.00
2019-02-16T05:07:20.217Z,0.00
2019-02-16T05:08:20.209Z,0.00
2019-02-16T05:09:20.203Z,0.00
2019-02-16T05:10:20.189Z,0.00
2019-02-16T05:11:20.181Z,0.00
2019-02-16T05:12:20.170Z,0.00
2019-02-16T05:13:20.158Z,0.00
2019-02-16T05:14:20.149Z,0.00
2019-02-16T05:15:20.140Z,0.00
2019-02-16T05:16:20.132Z,0.00
2019-02-16T05:17:20.122Z,0.00
2019-02-16T05:18:20.108Z,0.00
2019-02-16T05:19:20.100Z,0.00
2019-02-16T05:20:20.089Z,0.00
2019-02-16T05:21:20.084Z,0.00
2019-02-16T05:22:20.068Z,0.00
2019-02-16T05:23:20.059Z,0.00
2019-02-16T05:24:20.049Z,0.00
2019-02-16T05:25:20.039Z,0.00
2019-02-16T05:26:20.028Z,0.00
2019-02-16T05:27:20.018Z,0.00
2019-02-16T05:28:20.016Z,0.00
2019-02-16T05:29:19.998Z,0.00
2019-02-16T05:30:19.990Z,0.00
2019-02-16T05:31:19.973Z,0.00
2019-02-16T05:32:19.966Z,0.00
2019-02-16T05:33:19.979Z,0.00
2019-02-16T05:34:19.945Z,0.00
2019-02-16T05:35:19.942Z,0.00
2019-02-16T05:36:19.935Z,0.00
2019-02-16T05:37:19.916Z,0.00
2019-02-16T05:38:19.905Z,0.00
2019-02-16T05:39:19.898Z,0.00
2019-02-16T05:40:19.885Z,0.00
2019-02-16T05:41:19.882Z,0.00
2019-02-16T05:42:19.865Z,0.00
2019-02-16T05:43:19.853Z,0.00
2019-02-16T05:44:19.846Z,0.00
2019-02-16T05:45:19.833Z,0.00
2019-02-16T05:46:19.827Z,0.00
2019-02-16T05:47:19.817Z,0.00
2019-02-16T05:48:19.806Z,0.00
2019-02-16T05:49:19.795Z,0.00
2019-02-16T05:50:19.784Z,0.00
2019-02-16T05:51:19.771Z,4.00
2019-02-16T05:52:19.761Z,0.00
2019-02-16T05:53:20.300Z,4.00
2019-02-16T05:54:19.747Z,4.00
2019-02-16T05:55:19.734Z,4.00
2019-02-16T05:56:19.719Z,4.00
2019-02-16T05:57:19.712Z,4.00
2019-02-16T05:58:19.698Z,4.00
2019-02-16T05:59:19.691Z,8.00
2019-02-16T06:00:19.681Z,8.00
2019-02-16T06:01:19.670Z,12.00
2019-02-16T06:02:19.668Z,8.00
2019-02-16T06:03:19.650Z,12.00
2019-02-16T06:04:19.638Z,16.00
2019-02-16T06:05:19.628Z,20.00
2019-02-16T06:06:19.624Z,20.00
2019-02-16T06:07:19.610Z,28.00
2019-02-16T06:08:19.599Z,32.00
2019-02-16T06:09:19.589Z,36.00
2019-02-16T06:10:19.577Z,44.00
2019-02-16T06:11:19.567Z,48.00
2019-02-16T06:12:19.558Z,56.00
2019-02-16T06:13:19.546Z,64.00
2019-02-16T06:14:19.537Z,72.00
2019-02-16T06:15:19.530Z,84.00
2019-02-16T06:16:19.515Z,96.00
2019-02-16T06:17:19.506Z,108.00
2019-02-16T06:18:19.497Z,120.00
2019-02-16T06:19:19.488Z,132.00
2019-02-16T06:20:19.476Z,144.00
2019-02-16T06:21:19.471Z,160.00
2019-02-16T06:22:19.455Z,172.00
2019-02-16T06:23:19.443Z,188.00
2019-02-16T06:24:19.431Z,204.00
2019-02-16T06:25:19.433Z,224.00
2019-02-16T06:26:19.413Z,244.00
2019-02-16T06:27:19.407Z,260.00
2019-02-16T06:28:19.393Z,280.00
2019-02-16T06:29:19.384Z,300.00
2019-02-16T06:30:19.371Z,320.00
2019-02-16T06:31:19.361Z,344.00
2019-02-16T06:32:19.353Z,364.00
2019-02-16T06:33:19.343Z,388.00
2019-02-16T06:34:19.336Z,408.00
2019-02-16T06:35:19.320Z,432.00
2019-02-16T06:36:19.312Z,456.00
2019-02-16T06:37:19.303Z,476.00
2019-02-16T06:38:19.291Z,496.00
2019-02-16T06:39:19.279Z,524.00
2019-02-16T06:40:19.284Z,548.00
2019-02-16T06:41:19.261Z,568.00
2019-02-16T06:42:19.251Z,592.00
2019-02-16T06:43:19.249Z,612.00
2019-02-16T06:44:19.228Z,636.00
2019-02-16T06:45:19.220Z,656.00
2019-02-16T06:46:19.210Z,676.00
2019-02-16T06:47:19.196Z,700.00
2019-02-16T06:48:19.187Z,720.00
2019-02-16T06:49:19.176Z,740.00
2019-02-16T06:50:19.167Z,760.00
2019-02-16T06:51:19.155Z,780.00
2019-02-16T06:52:19.146Z,804.00
2019-02-16T06:53:19.137Z,820.00
2019-02-16T06:54:19.125Z,840.00
2019-02-16T06:55:19.117Z,860.00
2019-02-16T06:56:19.137Z,876.00
2019-02-16T06:57:19.093Z,896.00
2019-02-16T06:58:19.088Z,916.00
2019-02-16T06:59:19.075Z,936.00
2019-02-16T07:00:19.070Z,952.00
2019-02-16T07:01:19.054Z,968.00
2019-02-16T07:02:19.049Z,988.00
2019-02-16T07:03:19.032Z,1008.00
2019-02-16T07:04:19.024Z,1020.00
2019-02-16T07:05:19.018Z,1044.00
2019-02-16T07:06:19.003Z,1060.00
2019-02-16T07:07:18.991Z,1076.00
2019-02-16T07:08:18.984Z,1088.00
2019-02-16T07:09:18.971Z,1100.00
2019-02-16T07:10:18.962Z,1116.00
2019-02-16T07:11:18.954Z,1132.00
2019-02-16T07:12:18.943Z,1148.00
2019-02-16T07:13:18.934Z,1164.00
2019-02-16T07:14:18.925Z,1184.00
2019-02-16T07:15:18.913Z,1200.00
2019-02-16T07:16:18.904Z,1216.00
2019-02-16T07:17:18.895Z,1224.00
2019-02-16T07:18:18.881Z,1240.00
2019-02-16T07:19:18.895Z,1252.00
2019-02-16T07:20:18.863Z,1268.00
2019-02-16T07:21:18.853Z,1280.00
2019-02-16T07:22:18.844Z,1292.00
2019-02-16T07:23:22.542Z,1308.00
2019-02-16T07:24:18.825Z,1320.00
2019-02-16T07:25:18.805Z,1332.00
2019-02-16T07:26:18.801Z,1348.00
2019-02-16T07:27:18.794Z,1356.00
2019-02-16T07:28:18.788Z,1372.00
2019-02-16T07:29:18.772Z,1376.00
2019-02-16T07:30:18.770Z,1392.00
2019-02-16T07:31:18.751Z,1404.00
2019-02-16T07:32:18.741Z,1412.00
2019-02-16T07:33:18.731Z,1420.00
2019-02-16T07:34:18.724Z,1432.00
2019-02-16T07:35:18.719Z,1440.00
2019-02-16T07:36:18.702Z,1452.00
2019-02-16T07:37:18.695Z,1460.00
2019-02-16T07:38:18.683Z,1468.00
2019-02-16T07:39:18.673Z,1480.00
2019-02-16T07:40:18.659Z,1488.00
2019-02-16T07:41:18.653Z,1496.00
2019-02-16T07:42:18.648Z,1508.00
2019-02-16T07:43:18.635Z,1512.00
2019-02-16T07:44:18.620Z,1520.00
2019-02-16T07:45:18.615Z,1528.00
2019-02-16T07:46:18.665Z,1536.00
2019-02-16T07:47:18.600Z,1548.00
2019-02-16T07:48:18.580Z,1556.00
2019-02-16T07:49:18.581Z,1560.00
2019-02-16T07:50:18.563Z,1568.00
2019-02-16T07:51:18.555Z,1572.00
2019-02-16T07:52:18.544Z,1580.00
2019-02-16T07:53:18.537Z,1588.00
2019-02-16T07:54:18.527Z,1596.00
2019-02-16T07:55:20.590Z,1604.00
2019-02-16T07:56:18.506Z,1612.00
2019-02-16T07:57:18.498Z,1612.00
2019-02-16T07:58:18.539Z,1624.00
2019-02-16T07:59:18.475Z,1624.00
2019-02-16T08:00:18.468Z,1632.00
2019-02-16T08:01:18.464Z,1644.00
2019-02-16T08:02:18.451Z,1644.00
2019-02-16T08:03:18.438Z,1648.00
2019-02-16T08:04:18.433Z,1652.00
2019-02-16T08:05:18.421Z,1660.00
2019-02-16T08:06:18.410Z,1668.00
2019-02-16T08:07:18.400Z,1672.00
2019-02-16T08:08:18.391Z,1672.00
2019-02-16T08:09:18.383Z,1680.00
2019-02-16T08:10:18.375Z,1684.00
2019-02-16T08:11:18.362Z,1692.00
2019-02-16T08:12:18.354Z,1692.00
2019-02-16T08:13:18.508Z,1696.00
2019-02-16T08:14:18.333Z,1700.00
2019-02-16T08:15:18.365Z,1704.00
2019-02-16T08:16:18.315Z,1708.00
2019-02-16T08:17:18.308Z,1716.00
2019-02-16T08:18:18.299Z,1720.00
2019-02-16T08:19:18.287Z,1724.00
2019-02-16T08:20:18.281Z,1728.00
2019-02-16T08:21:18.271Z,1728.00
2019-02-16T08:22:18.261Z,1736.00
2019-02-16T08:23:18.248Z,1740.00
2019-02-16T08:24:18.242Z,1748.00
2019-02-16T08:25:18.235Z,1752.00
2019-02-16T08:26:18.272Z,1756.00
2019-02-16T08:27:18.215Z,1760.00
2019-02-16T08:28:18.204Z,1760.00
2019-02-16T08:29:18.197Z,1772.00
2019-02-16T08:30:18.189Z,1768.00
2019-02-16T08:31:18.178Z,1772.00
2019-02-16T08:32:18.167Z,1768.00
2019-02-16T08:33:18.161Z,1776.00
2019-02-16T08:34:18.152Z,1776.00
2019-02-16T08:35:18.146Z,1780.00
2019-02-16T08:36:18.131Z,1788.00
2019-02-16T08:37:18.125Z,1784.00
2019-02-16T08:38:18.115Z,1788.00
2019-02-16T08:39:18.107Z,1784.00
2019-02-16T08:40:18.096Z,1796.00
2019-02-16T08:41:18.087Z,1800.00
2019-02-16T08:42:18.083Z,1796.00
2019-02-16T08:43:18.070Z,1800.00
2019-02-16T08:44:18.071Z,1800.00
2019-02-16T08:45:18.053Z,1800.00
2019-02-16T08:46:18.045Z,1816.00
2019-02-16T08:47:18.036Z,1804.00
2019-02-16T08:48:18.028Z,1816.00
2019-02-16T08:49:18.019Z,1808.00
2019-02-16T08:50:18.010Z,1808.00
2019-02-16T08:51:18.006Z,1812.00
2019-02-16T08:52:17.996Z,1816.00
2019-02-16T08:53:17.984Z,1816.00
2019-02-16T08:54:17.975Z,1812.00
2019-02-16T08:55:17.967Z,1816.00
2019-02-16T08:56:17.957Z,1816.00
2019-02-16T08:57:17.951Z,1816.00
2019-02-16T08:58:17.941Z,1820.00
2019-02-16T08:59:17.939Z,1824.00
2019-02-16T09:00:17.923Z,1820.00
2019-02-16T09:01:17.915Z,1820.00
2019-02-16T09:02:17.913Z,1824.00
2019-02-16T09:03:17.897Z,1828.00
2019-02-16T09:04:17.890Z,1824.00
2019-02-16T09:05:17.883Z,1828.00
2019-02-16T09:06:17.879Z,1832.00
2019-02-16T09:07:17.867Z,1832.00
2019-02-16T09:08:17.858Z,1832.00
2019-02-16T09:09:17.851Z,1832.00
2019-02-16T09:10:17.842Z,1836.00
2019-02-16T09:11:17.832Z,1832.00
2019-02-16T09:12:17.826Z,1832.00
2019-02-16T09:13:17.821Z,1836.00
2019-02-16T09:14:17.809Z,1836.00
2019-02-16T09:15:17.801Z,1836.00
2019-02-16T09:16:17.791Z,1840.00
2019-02-16T09:17:17.788Z,1840.00
2019-02-16T09:18:17.776Z,1840.00
2019-02-16T09:19:17.769Z,1840.00
2019-02-16T09:20:17.768Z,1844.00
2019-02-16T09:21:17.752Z,1844.00
2019-02-16T09:22:17.902Z,1844.00
2019-02-16T09:23:17.734Z,1844.00
2019-02-16T09:24:17.730Z,1844.00
2019-02-16T09:25:17.719Z,1848.00
2019-02-16T09:26:17.781Z,1852.00
2019-02-16T09:27:17.704Z,1852.00
2019-02-16T09:28:17.700Z,1852.00
2019-02-16T09:29:17.713Z,1856.00
2019-02-16T09:30:17.681Z,1852.00
2019-02-16T09:31:17.671Z,1856.00
2019-02-16T09:32:17.665Z,1856.00
2019-02-16T09:33:17.659Z,1856.00
2019-02-16T09:34:17.652Z,1856.00
2019-02-16T09:35:17.644Z,1852.00
2019-02-16T09:36:17.635Z,1856.00
2019-02-16T09:37:17.627Z,1856.00
2019-02-16T09:38:17.620Z,1856.00
2019-02-16T09:39:17.613Z,1856.00
2019-02-16T09:40:17.604Z,1856.00
2019-02-16T09:41:17.598Z,1856.00
2019-02-16T09:42:17.589Z,1856.00
2019-02-16T09:43:17.586Z,1856.00
2019-02-16T09:44:17.573Z,1856.00
2019-02-16T09:45:17.569Z,1852.00
2019-02-16T09:46:17.563Z,1852.00
2019-02-16T09:47:17.550Z,1860.00
2019-02-16T09:48:17.545Z,1856.00
2019-02-16T09:49:17.584Z,1864.00
2019-02-16T09:50:17.536Z,1856.00
2019-02-16T09:51:17.522Z,1860.00
2019-02-16T09:52:17.516Z,1856.00
2019-02-16T09:53:17.512Z,1860.00
2019-02-16T09:54:17.503Z,1860.00
2019-02-16T09:55:17.493Z,1860.00
2019-02-16T09:56:17.489Z,1852.00
2019-02-16T09:57:17.478Z,1856.00
2019-02-16T09:58:17.474Z,1856.00
2019-02-16T09:59:17.464Z,1856.00
2019-02-16T10:00:17.463Z,1856.00
2019-02-16T10:01:17.453Z,1856.00
2019-02-16T10:02:17.445Z,1856.00
2019-02-16T10:03:17.438Z,1860.00
2019-02-16T10:04:17.432Z,1860.00
2019-02-16T10:05:17.751Z,1860.00
2019-02-16T10:06:17.418Z,1864.00
2019-02-16T10:07:17.409Z,1860.00
2019-02-16T10:08:17.402Z,1856.00
2019-02-16T10:09:17.399Z,1860.00
2019-02-16T10:10:17.390Z,1860.00
2019-02-16T10:11:17.384Z,1860.00
2019-02-16T10:12:17.382Z,1860.00
2019-02-16T10:13:17.375Z,1860.00
2019-02-16T10:14:17.365Z,1864.00
2019-02-16T10:15:17.367Z,1864.00
2019-02-16T10:16:17.350Z,1860.00
2019-02-16T10:17:17.349Z,1860.00
2019-02-16T10:18:17.340Z,1856.00
2019-02-16T10:19:17.330Z,1852.00
2019-02-16T10:20:17.323Z,1856.00
2019-02-16T10:21:17.320Z,1856.00
2019-02-16T10:22:17.312Z,1856.00
2019-02-16T10:23:17.305Z,1852.00
2019-02-16T10:24:18.168Z,1852.00
2019-02-16T10:25:17.294Z,1856.00
2019-02-16T10:26:17.287Z,1856.00
2019-02-16T10:27:17.278Z,1852.00
2019-02-16T10:28:17.272Z,1852.00
2019-02-16T10:29:17.267Z,1856.00
2019-02-16T10:30:17.260Z,1856.00
2019-02-16T10:31:17.251Z,1856.00
2019-02-16T10:32:17.256Z,1848.00
2019-02-16T10:33:17.242Z,1852.00
2019-02-16T10:34:17.237Z,1856.00
2019-02-16T10:35:17.229Z,1852.00
2019-02-16T10:36:17.226Z,1848.00
2019-02-16T10:37:17.219Z,1852.00
2019-02-16T10:38:17.211Z,1852.00
2019-02-16T10:39:17.203Z,1852.00
2019-02-16T10:40:17.197Z,1852.00
2019-02-16T10:41:17.192Z,1852.00
2019-02-16T10:42:17.413Z,1844.00
2019-02-16T10:43:17.961Z,1844.00
2019-02-16T10:44:17.351Z,1848.00
2019-02-16T10:45:17.259Z,1844.00
2019-02-16T10:46:17.247Z,1844.00
2019-02-16T10:47:17.233Z,1848.00
2019-02-16T10:48:17.182Z,1844.00
2019-02-16T10:49:17.369Z,1844.00
2019-02-16T10:50:17.369Z,1844.00
2019-02-16T10:51:17.223Z,1844.00
2019-02-16T10:52:17.522Z,1844.00
2019-02-16T10:53:17.335Z,1840.00
2019-02-16T10:54:17.118Z,1844.00
2019-02-16T10:55:17.275Z,1840.00
2019-02-16T10:56:17.344Z,1840.00
2019-02-16T10:57:17.107Z,1840.00
2019-02-16T10:58:17.170Z,1844.00
2019-02-16T10:59:18.578Z,1844.00
2019-02-16T11:00:17.090Z,1840.00
2019-02-16T11:01:17.080Z,1844.00
2019-02-16T11:02:17.076Z,1840.00
2019-02-16T11:03:17.065Z,1840.00
2019-02-16T11:04:17.059Z,1836.00
2019-02-16T11:05:17.059Z,1840.00
2019-02-16T11:06:17.062Z,1836.00
2019-02-16T11:07:17.403Z,1836.00
2019-02-16T11:08:17.049Z,1836.00
2019-02-16T11:09:17.037Z,1840.00
2019-02-16T11:10:17.029Z,1840.00
2019-02-16T11:11:17.023Z,1840.00
2019-02-16T11:12:17.021Z,1844.00
2019-02-16T11:13:17.012Z,1844.00
2019-02-16T11:14:17.010Z,1848.00
2019-02-16T11:15:17.000Z,1848.00
2019-02-16T11:16:17.061Z,1848.00
2019-02-16T11:17:16.994Z,1852.00
2019-02-16T11:18:16.985Z,1856.00
2019-02-16T11:19:16.981Z,1856.00
2019-02-16T11:20:16.975Z,1860.00
2019-02-16T11:21:16.973Z,1864.00
2019-02-16T11:22:16.974Z,1864.00
2019-02-16T11:23:16.960Z,1872.00
2019-02-16T11:24:16.954Z,1872.00
2019-02-16T11:25:16.950Z,1880.00
2019-02-16T11:26:16.945Z,1876.00
2019-02-16T11:27:16.939Z,1884.00
2019-02-16T11:28:16.934Z,1888.00
2019-02-16T11:29:16.930Z,1896.00
2019-02-16T11:30:16.927Z,1896.00
2019-02-16T11:31:16.920Z,1896.00
2019-02-16T11:32:16.915Z,1904.00
2019-02-16T11:33:16.914Z,1908.00
2019-02-16T11:34:16.905Z,1912.00
2019-02-16T11:35:16.899Z,1916.00
2019-02-16T11:36:16.897Z,1916.00
2019-02-16T11:37:16.889Z,1916.00
2019-02-16T11:38:16.888Z,1920.00
2019-02-16T11:39:16.894Z,1920.00
2019-02-16T11:40:16.881Z,1920.00
2019-02-16T11:41:18.845Z,1924.00
2019-02-16T11:42:16.866Z,1924.00
2019-02-16T11:43:16.862Z,1928.00
2019-02-16T11:44:16.859Z,1932.00
2019-02-16T11:45:16.853Z,1932.00
2019-02-16T11:46:16.845Z,1932.00
2019-02-16T11:47:16.843Z,1936.00
2019-02-16T11:48:16.839Z,1932.00
2019-02-16T11:49:16.839Z,1936.00
2019-02-16T11:50:16.830Z,1936.00
2019-02-16T11:51:16.825Z,1940.00
2019-02-16T11:52:16.820Z,1940.00
2019-02-16T11:53:16.815Z,1940.00
2019-02-16T11:54:16.814Z,1940.00
2019-02-16T11:55:16.806Z,1944.00
2019-02-16T11:56:16.800Z,1944.00
2019-02-16T11:57:16.800Z,1944.00
2019-02-16T11:58:16.798Z,1944.00
2019-02-16T11:59:16.790Z,1940.00
2019-02-16T12:00:16.781Z,1940.00
2019-02-16T12:01:16.775Z,1940.00
2019-02-16T12:02:16.784Z,1940.00
2019-02-16T12:03:16.780Z,1940.00
2019-02-16T12:04:17.245Z,1940.00
2019-02-16T12:05:16.763Z,1940.00
2019-02-16T12:06:16.762Z,1940.00
2019-02-16T12:07:16.758Z,1940.00
2019-02-16T12:08:16.753Z,1940.00
2019-02-16T12:09:16.748Z,1936.00
2019-02-16T12:10:16.744Z,1932.00
2019-02-16T12:11:16.739Z,1928.00
2019-02-16T12:12:16.734Z,1928.00
2019-02-16T12:13:16.731Z,1924.00
2019-02-16T12:14:17.890Z,1924.00
2019-02-16T12:15:16.724Z,1920.00
2019-02-16T12:16:16.721Z,1916.00
2019-02-16T12:17:16.713Z,1916.00
2019-02-16T12:18:16.712Z,1908.00
2019-02-16T12:19:16.706Z,1908.00
2019-02-16T12:20:16.700Z,1908.00
2019-02-16T12:21:16.698Z,1904.00
2019-02-16T12:22:16.695Z,1900.00
2019-02-16T12:23:16.691Z,1896.00
2019-02-16T12:24:16.686Z,1892.00
2019-02-16T12:25:16.685Z,1888.00
2019-02-16T12:26:16.679Z,1884.00
2019-02-16T12:27:16.675Z,1880.00
2019-02-16T12:28:16.671Z,1876.00
2019-02-16T12:29:16.665Z,1872.00
2019-02-16T12:30:16.662Z,1868.00
2019-02-16T12:31:16.663Z,1864.00
2019-02-16T12:32:16.654Z,1864.00
2019-02-16T12:33:16.654Z,1856.00
2019-02-16T12:34:16.648Z,1848.00
2019-02-16T12:35:16.644Z,1848.00
2019-02-16T12:36:16.638Z,1844.00
2019-02-16T12:37:16.636Z,1840.00
2019-02-16T12:38:16.634Z,1836.00
2019-02-16T12:39:16.627Z,1828.00
2019-02-16T12:40:16.625Z,1824.00
2019-02-16T12:41:16.623Z,1820.00